ブリュッセル の空港の天気 - METARとTAF

ブリュッセル国際空港 ( EBBR / BRU ) - ベルギー ブリュッセル / Zaventem
飛行場実況気象(Metar)
観測時間02/05 21:20 CET (02/05 20:20 UTC)
風向・風速北 4m/s
視程10km以上
天気現象
なし
気温4℃
湿度87%
気圧1042hPa
METAREBBR 052020Z 01007KT CAVOK 04/02 Q1042 NOSIG
過去の天気等 Google飛行場航空写真 Wunderground天気予報

過去48時間のMETAR

飛行場予報(TAF)
発表時間: 2/05 18:20 CET (2/05 17:20 UTC)
予報対象時間: 5日19時 CET ~ 7日1時 CET
風向・風速北北東 4m/s
視程10km以上
少しの雲 雲底高度 760m
6日5時 CET ~ 6日11時 CET に一時的に
視程3500m
天気現象もや
6日6時 CET ~ 6日11時 CET に 確率 30% で一時的に
視程1200m
天気現象地霧
全天の8割程度の雲 雲底高度 90m
TAF EBBR 051720Z 0518/0624 02008KT 9999 FEW025
TEMPO 0604/0610 3500 BR
PROB30 TEMPO 0605/0610 1200 MIFG BKN003